sensor_id;sensor_type;location;lat;lon;timestamp;P1;durP1;ratioP1;P2;durP2;ratioP2
3099;SDS011;1560;52.746;13.474;2023-02-22T00:01:32;11.53;;;5.15;;
3099;SDS011;1560;52.746;13.474;2023-02-22T00:04:04;21.50;;;6.08;;
3099;SDS011;1560;52.746;13.474;2023-02-22T00:06:35;20.05;;;5.35;;
3099;SDS011;1560;52.746;13.474;2023-02-22T00:09:04;13.40;;;6.05;;
3099;SDS011;1560;52.746;13.474;2023-02-22T00:11:34;17.67;;;5.33;;
3099;SDS011;1560;52.746;13.474;2023-02-22T00:14:04;20.27;;;6.95;;
3099;SDS011;1560;52.746;13.474;2023-02-22T00:16:33;12.47;;;5.80;;
3099;SDS011;1560;52.746;13.474;2023-02-22T00:19:01;18.90;;;8.38;;
3099;SDS011;1560;52.746;13.474;2023-02-22T00:24:07;10.00;;;4.80;;
3099;SDS011;1560;52.746;13.474;2023-02-22T00:26:44;16.70;;;6.60;;
3099;SDS011;1560;52.746;13.474;2023-02-22T00:29:13;15.05;;;5.87;;
3099;SDS011;1560;52.746;13.474;2023-02-22T00:31:42;12.95;;;5.65;;
3099;SDS011;1560;52.746;13.474;2023-02-22T00:34:12;12.10;;;5.28;;
3099;SDS011;1560;52.746;13.474;2023-02-22T00:36:44;8.53;;;5.40;;
3099;SDS011;1560;52.746;13.474;2023-02-22T00:39:13;10.72;;;5.53;;
3099;SDS011;1560;52.746;13.474;2023-02-22T00:41:42;13.40;;;6.15;;
3099;SDS011;1560;52.746;13.474;2023-02-22T00:44:11;12.68;;;5.10;;
3099;SDS011;1560;52.746;13.474;2023-02-22T00:46:40;22.07;;;6.35;;
3099;SDS011;1560;52.746;13.474;2023-02-22T00:49:09;14.00;;;5.50;;
3099;SDS011;1560;52.746;13.474;2023-02-22T00:54:14;15.78;;;5.08;;
3099;SDS011;1560;52.746;13.474;2023-02-22T00:56:45;11.22;;;5.10;;
3099;SDS011;1560;52.746;13.474;2023-02-22T00:59:15;10.93;;;4.67;;
3099;SDS011;1560;52.746;13.474;2023-02-22T01:01:44;13.62;;;4.78;;
3099;SDS011;1560;52.746;13.474;2023-02-22T01:04:13;16.85;;;5.55;;
3099;SDS011;1560;52.746;13.474;2023-02-22T01:06:50;12.53;;;4.45;;
3099;SDS011;1560;52.746;13.474;2023-02-22T01:09:21;13.88;;;4.95;;
3099;SDS011;1560;52.746;13.474;2023-02-22T01:11:58;7.53;;;3.90;;
3099;SDS011;1560;52.746;13.474;2023-02-22T01:14:27;12.07;;;4.17;;
3099;SDS011;1560;52.746;13.474;2023-02-22T01:16:56;9.23;;;4.78;;
3099;SDS011;1560;52.746;13.474;2023-02-22T01:19:25;14.55;;;5.40;;
3099;SDS011;1560;52.746;13.474;2023-02-22T01:21:54;8.90;;;4.72;;
3099;SDS011;1560;52.746;13.474;2023-02-22T01:24:22;10.58;;;4.17;;
3099;SDS011;1560;52.746;13.474;2023-02-22T01:26:52;20.15;;;4.42;;
3099;SDS011;1560;52.746;13.474;2023-02-22T01:31:57;15.65;;;5.28;;
3099;SDS011;1560;52.746;13.474;2023-02-22T01:34:27;16.20;;;5.05;;
3099;SDS011;1560;52.746;13.474;2023-02-22T01:37:04;16.52;;;5.03;;
3099;SDS011;1560;52.746;13.474;2023-02-22T01:42:10;15.28;;;6.03;;
3099;SDS011;1560;52.746;13.474;2023-02-22T01:44:39;20.40;;;5.03;;
3099;SDS011;1560;52.746;13.474;2023-02-22T01:47:08;9.98;;;4.72;;
3099;SDS011;1560;52.746;13.474;2023-02-22T01:52:15;11.35;;;4.92;;
3099;SDS011;1560;52.746;13.474;2023-02-22T01:54:45;21.77;;;5.87;;
3099;SDS011;1560;52.746;13.474;2023-02-22T01:57:18;12.78;;;5.17;;
3099;SDS011;1560;52.746;13.474;2023-02-22T01:59:57;15.50;;;4.40;;
3099;SDS011;1560;52.746;13.474;2023-02-22T02:02:21;8.25;;;4.47;;
3099;SDS011;1560;52.746;13.474;2023-02-22T02:04:52;9.85;;;4.15;;
3099;SDS011;1560;52.746;13.474;2023-02-22T02:07:31;10.75;;;4.60;;
3099;SDS011;1560;52.746;13.474;2023-02-22T02:10:00;13.93;;;4.72;;
3099;SDS011;1560;52.746;13.474;2023-02-22T02:15:19;12.88;;;4.97;;
3099;SDS011;1560;52.746;13.474;2023-02-22T02:17:52;15.28;;;5.30;;
3099;SDS011;1560;52.746;13.474;2023-02-22T02:20:24;11.10;;;5.42;;
3099;SDS011;1560;52.746;13.474;2023-02-22T02:22:56;12.45;;;4.50;;
3099;SDS011;1560;52.746;13.474;2023-02-22T02:25:50;11.85;;;4.60;;
3099;SDS011;1560;52.746;13.474;2023-02-22T02:34:44;27.95;;;4.65;;
3099;SDS011;1560;52.746;13.474;2023-02-22T02:37:17;19.62;;;5.70;;
3099;SDS011;1560;52.746;13.474;2023-02-22T02:39:49;12.28;;;4.53;;
3099;SDS011;1560;52.746;13.474;2023-02-22T02:42:21;11.33;;;4.25;;
3099;SDS011;1560;52.746;13.474;2023-02-22T02:45:00;17.52;;;4.95;;
3099;SDS011;1560;52.746;13.474;2023-02-22T02:47:34;13.22;;;5.47;;
3099;SDS011;1560;52.746;13.474;2023-02-22T02:50:14;14.20;;;5.00;;
3099;SDS011;1560;52.746;13.474;2023-02-22T02:52:45;9.33;;;4.33;;
3099;SDS011;1560;52.746;13.474;2023-02-22T02:55:14;14.43;;;5.00;;
3099;SDS011;1560;52.746;13.474;2023-02-22T02:57:52;11.40;;;4.47;;
3099;SDS011;1560;52.746;13.474;2023-02-22T03:00:23;18.37;;;5.58;;
3099;SDS011;1560;52.746;13.474;2023-02-22T03:02:58;10.43;;;6.15;;
3099;SDS011;1560;52.746;13.474;2023-02-22T03:05:40;12.98;;;4.78;;
3099;SDS011;1560;52.746;13.474;2023-02-22T03:08:13;15.78;;;4.83;;
3099;SDS011;1560;52.746;13.474;2023-02-22T03:10:46;10.70;;;4.72;;
3099;SDS011;1560;52.746;13.474;2023-02-22T03:15:55;17.50;;;5.70;;
3099;SDS011;1560;52.746;13.474;2023-02-22T03:21:06;15.18;;;5.90;;
3099;SDS011;1560;52.746;13.474;2023-02-22T03:23:38;14.47;;;4.47;;
3099;SDS011;1560;52.746;13.474;2023-02-22T03:26:11;9.00;;;4.17;;
3099;SDS011;1560;52.746;13.474;2023-02-22T03:31:19;9.30;;;4.35;;
3099;SDS011;1560;52.746;13.474;2023-02-22T03:33:52;9.08;;;4.50;;
3099;SDS011;1560;52.746;13.474;2023-02-22T03:36:23;13.55;;;4.40;;
3099;SDS011;1560;52.746;13.474;2023-02-22T03:38:56;8.10;;;3.45;;
3099;SDS011;1560;52.746;13.474;2023-02-22T03:41:34;13.45;;;4.58;;
3099;SDS011;1560;52.746;13.474;2023-02-22T03:44:07;12.15;;;4.75;;
3099;SDS011;1560;52.746;13.474;2023-02-22T03:46:38;13.68;;;4.47;;
3099;SDS011;1560;52.746;13.474;2023-02-22T03:49:09;15.08;;;4.42;;
3099;SDS011;1560;52.746;13.474;2023-02-22T03:54:17;11.05;;;4.50;;
3099;SDS011;1560;52.746;13.474;2023-02-22T03:56:48;9.73;;;4.58;;
3099;SDS011;1560;52.746;13.474;2023-02-22T03:59:19;9.73;;;3.77;;
3099;SDS011;1560;52.746;13.474;2023-02-22T04:01:51;11.80;;;3.40;;
3099;SDS011;1560;52.746;13.474;2023-02-22T04:04:21;8.30;;;3.55;;
3099;SDS011;1560;52.746;13.474;2023-02-22T04:09:26;12.55;;;4.33;;
3099;SDS011;1560;52.746;13.474;2023-02-22T04:11:55;9.58;;;3.90;;
3099;SDS011;1560;52.746;13.474;2023-02-22T04:17:03;9.50;;;4.90;;
3099;SDS011;1560;52.746;13.474;2023-02-22T04:22:08;11.22;;;6.58;;
3099;SDS011;1560;52.746;13.474;2023-02-22T04:24:37;14.18;;;5.22;;
3099;SDS011;1560;52.746;13.474;2023-02-22T04:27:06;13.15;;;4.33;;
3099;SDS011;1560;52.746;13.474;2023-02-22T04:29:35;11.33;;;3.70;;
3099;SDS011;1560;52.746;13.474;2023-02-22T04:32:04;10.58;;;3.67;;
3099;SDS011;1560;52.746;13.474;2023-02-22T04:34:33;15.43;;;4.25;;
3099;SDS011;1560;52.746;13.474;2023-02-22T04:37:02;15.25;;;5.15;;
3099;SDS011;1560;52.746;13.474;2023-02-22T04:39:31;12.60;;;4.40;;
3099;SDS011;1560;52.746;13.474;2023-02-22T04:42:00;10.28;;;3.92;;
3099;SDS011;1560;52.746;13.474;2023-02-22T04:44:28;8.20;;;4.30;;
3099;SDS011;1560;52.746;13.474;2023-02-22T04:46:58;15.35;;;4.17;;
3099;SDS011;1560;52.746;13.474;2023-02-22T04:49:27;12.85;;;4.35;;
3099;SDS011;1560;52.746;13.474;2023-02-22T04:51:56;10.60;;;3.58;;
3099;SDS011;1560;52.746;13.474;2023-02-22T04:54:25;13.60;;;4.90;;
3099;SDS011;1560;52.746;13.474;2023-02-22T04:56:54;14.93;;;4.70;;
3099;SDS011;1560;52.746;13.474;2023-02-22T04:59:23;11.55;;;3.83;;
3099;SDS011;1560;52.746;13.474;2023-02-22T05:01:52;14.15;;;4.70;;
3099;SDS011;1560;52.746;13.474;2023-02-22T05:04:20;11.33;;;3.40;;
3099;SDS011;1560;52.746;13.474;2023-02-22T05:06:49;11.05;;;4.05;;
3099;SDS011;1560;52.746;13.474;2023-02-22T05:11:55;6.50;;;3.40;;
3099;SDS011;1560;52.746;13.474;2023-02-22T05:14:24;10.43;;;4.22;;
3099;SDS011;1560;52.746;13.474;2023-02-22T05:16:53;12.07;;;3.85;;
3099;SDS011;1560;52.746;13.474;2023-02-22T05:19:23;10.75;;;5.17;;
3099;SDS011;1560;52.746;13.474;2023-02-22T05:21:52;8.60;;;4.47;;
3099;SDS011;1560;52.746;13.474;2023-02-22T05:24:21;8.78;;;4.50;;
3099;SDS011;1560;52.746;13.474;2023-02-22T05:29:34;12.82;;;3.80;;
3099;SDS011;1560;52.746;13.474;2023-02-22T05:34:47;13.03;;;4.22;;
3099;SDS011;1560;52.746;13.474;2023-02-22T05:37:18;8.70;;;3.70;;
3099;SDS011;1560;52.746;13.474;2023-02-22T05:39:49;13.32;;;4.25;;
3099;SDS011;1560;52.746;13.474;2023-02-22T05:44:58;11.85;;;5.65;;
3099;SDS011;1560;52.746;13.474;2023-02-22T05:47:27;15.28;;;6.45;;
3099;SDS011;1560;52.746;13.474;2023-02-22T06:11:53;7.03;;;3.10;;
3099;SDS011;1560;52.746;13.474;2023-02-22T06:14:21;13.43;;;3.85;;
3099;SDS011;1560;52.746;13.474;2023-02-22T06:16:54;13.62;;;3.92;;
3099;SDS011;1560;52.746;13.474;2023-02-22T06:22:06;10.75;;;4.70;;
3099;SDS011;1560;52.746;13.474;2023-02-22T06:24:39;14.85;;;5.25;;
3099;SDS011;1560;52.746;13.474;2023-02-22T06:27:08;14.50;;;5.35;;
3099;SDS011;1560;52.746;13.474;2023-02-22T06:29:37;14.20;;;6.25;;
3099;SDS011;1560;52.746;13.474;2023-02-22T06:46:03;17.70;;;8.53;;
3099;SDS011;1560;52.746;13.474;2023-02-22T06:48:35;19.07;;;10.18;;
3099;SDS011;1560;52.746;13.474;2023-02-22T06:51:06;16.95;;;9.08;;
3099;SDS011;1560;52.746;13.474;2023-02-22T06:53:35;13.08;;;7.95;;
3099;SDS011;1560;52.746;13.474;2023-02-22T07:23:38;9.43;;;4.00;;
3099;SDS011;1560;52.746;13.474;2023-02-22T07:36:42;14.05;;;5.05;;
3099;SDS011;1560;52.746;13.474;2023-02-22T07:41:51;11.93;;;4.50;;
3099;SDS011;1560;52.746;13.474;2023-02-22T07:44:20;11.97;;;4.25;;
3099;SDS011;1560;52.746;13.474;2023-02-22T07:46:48;9.68;;;4.67;;
3099;SDS011;1560;52.746;13.474;2023-02-22T07:49:17;19.82;;;4.25;;
3099;SDS011;1560;52.746;13.474;2023-02-22T07:51:46;24.20;;;5.62;;
3099;SDS011;1560;52.746;13.474;2023-02-22T07:54:15;25.12;;;6.33;;
3099;SDS011;1560;52.746;13.474;2023-02-22T07:59:28;14.10;;;5.60;;
3099;SDS011;1560;52.746;13.474;2023-02-22T08:04:51;25.12;;;6.10;;
3099;SDS011;1560;52.746;13.474;2023-02-22T08:07:20;14.87;;;6.37;;
3099;SDS011;1560;52.746;13.474;2023-02-22T08:09:49;20.55;;;6.30;;
3099;SDS011;1560;52.746;13.474;2023-02-22T08:12:18;12.63;;;5.83;;
3099;SDS011;1560;52.746;13.474;2023-02-22T08:17:23;17.85;;;5.33;;
3099;SDS011;1560;52.746;13.474;2023-02-22T08:19:52;17.73;;;6.15;;
3099;SDS011;1560;52.746;13.474;2023-02-22T08:22:21;17.23;;;6.40;;
3099;SDS011;1560;52.746;13.474;2023-02-22T08:24:50;18.15;;;5.17;;
3099;SDS011;1560;52.746;13.474;2023-02-22T08:27:22;19.45;;;5.40;;
3099;SDS011;1560;52.746;13.474;2023-02-22T08:40:33;13.83;;;5.03;;
3099;SDS011;1560;52.746;13.474;2023-02-22T08:43:04;16.23;;;4.70;;
3099;SDS011;1560;52.746;13.474;2023-02-22T08:45:33;16.02;;;5.22;;
3099;SDS011;1560;52.746;13.474;2023-02-22T09:09:40;8.03;;;4.85;;
3099;SDS011;1560;52.746;13.474;2023-02-22T09:12:09;22.82;;;6.25;;
3099;SDS011;1560;52.746;13.474;2023-02-22T09:14:38;21.00;;;6.05;;
3099;SDS011;1560;52.746;13.474;2023-02-22T09:17:08;24.67;;;7.03;;
3099;SDS011;1560;52.746;13.474;2023-02-22T09:19:37;25.30;;;7.25;;
3099;SDS011;1560;52.746;13.474;2023-02-22T09:24:42;24.80;;;5.40;;
3099;SDS011;1560;52.746;13.474;2023-02-22T09:27:12;15.08;;;4.95;;
3099;SDS011;1560;52.746;13.474;2023-02-22T09:29:46;19.05;;;5.30;;
3099;SDS011;1560;52.746;13.474;2023-02-22T09:32:15;20.20;;;5.60;;
3099;SDS011;1560;52.746;13.474;2023-02-22T09:34:45;18.37;;;6.15;;
3099;SDS011;1560;52.746;13.474;2023-02-22T09:37:14;14.90;;;4.40;;
3099;SDS011;1560;52.746;13.474;2023-02-22T09:39:52;15.63;;;4.60;;
3099;SDS011;1560;52.746;13.474;2023-02-22T09:42:22;23.35;;;5.17;;
3099;SDS011;1560;52.746;13.474;2023-02-22T09:44:55;22.02;;;6.35;;
3099;SDS011;1560;52.746;13.474;2023-02-22T09:47:34;14.40;;;4.65;;
3099;SDS011;1560;52.746;13.474;2023-02-22T10:22:33;22.55;;;5.80;;
3099;SDS011;1560;52.746;13.474;2023-02-22T10:25:09;25.62;;;5.35;;
3099;SDS011;1560;52.746;13.474;2023-02-22T10:49:09;21.73;;;4.75;;
3099;SDS011;1560;52.746;13.474;2023-02-22T10:51:39;16.60;;;5.45;;
3099;SDS011;1560;52.746;13.474;2023-02-22T10:54:17;19.55;;;3.85;;
3099;SDS011;1560;52.746;13.474;2023-02-22T10:56:50;21.60;;;3.98;;
3099;SDS011;1560;52.746;13.474;2023-02-22T10:59:30;16.00;;;4.35;;
3099;SDS011;1560;52.746;13.474;2023-02-22T11:02:00;13.08;;;4.47;;
3099;SDS011;1560;52.746;13.474;2023-02-22T11:04:44;16.20;;;4.40;;
3099;SDS011;1560;52.746;13.474;2023-02-22T11:07:18;18.75;;;4.90;;
3099;SDS011;1560;52.746;13.474;2023-02-22T11:09:50;21.35;;;4.60;;
3099;SDS011;1560;52.746;13.474;2023-02-22T11:12:24;17.10;;;4.42;;
3099;SDS011;1560;52.746;13.474;2023-02-22T11:28:40;14.95;;;4.00;;
3099;SDS011;1560;52.746;13.474;2023-02-22T11:55:25;14.98;;;3.72;;
3099;SDS011;1560;52.746;13.474;2023-02-22T11:58:00;16.95;;;3.95;;
3099;SDS011;1560;52.746;13.474;2023-02-22T12:00:43;18.60;;;3.90;;
3099;SDS011;1560;52.746;13.474;2023-02-22T12:03:25;16.80;;;4.58;;
3099;SDS011;1560;52.746;13.474;2023-02-22T13:03:52;18.42;;;4.42;;
3099;SDS011;1560;52.746;13.474;2023-02-22T14:03:45;16.35;;;4.20;;
3099;SDS011;1560;52.746;13.474;2023-02-22T14:15:15;14.00;;;4.67;;
3099;SDS011;1560;52.746;13.474;2023-02-22T14:17:47;17.02;;;5.00;;
3099;SDS011;1560;52.746;13.474;2023-02-22T14:20:22;12.50;;;4.80;;
3099;SDS011;1560;52.746;13.474;2023-02-22T14:22:57;12.00;;;3.77;;
3099;SDS011;1560;52.746;13.474;2023-02-22T14:25:44;15.60;;;5.00;;
3099;SDS011;1560;52.746;13.474;2023-02-22T14:31:09;16.40;;;4.12;;
3099;SDS011;1560;52.746;13.474;2023-02-22T14:33:53;13.15;;;4.25;;
3099;SDS011;1560;52.746;13.474;2023-02-22T14:36:29;21.05;;;4.85;;
3099;SDS011;1560;52.746;13.474;2023-02-22T14:39:04;14.18;;;5.40;;
3099;SDS011;1560;52.746;13.474;2023-02-22T14:44:19;16.87;;;5.05;;
3099;SDS011;1560;52.746;13.474;2023-02-22T14:46:51;14.23;;;4.00;;
3099;SDS011;1560;52.746;13.474;2023-02-22T14:49:24;16.65;;;5.08;;
3099;SDS011;1560;52.746;13.474;2023-02-22T14:51:56;14.23;;;4.25;;
3099;SDS011;1560;52.746;13.474;2023-02-22T14:54:30;10.13;;;4.60;;
3099;SDS011;1560;52.746;13.474;2023-02-22T14:57:07;12.43;;;4.22;;
3099;SDS011;1560;52.746;13.474;2023-02-22T14:59:46;11.97;;;3.95;;
3099;SDS011;1560;52.746;13.474;2023-02-22T15:02:22;13.38;;;3.70;;
3099;SDS011;1560;52.746;13.474;2023-02-22T15:04:59;14.98;;;4.35;;
3099;SDS011;1560;52.746;13.474;2023-02-22T15:07:30;7.55;;;3.75;;
3099;SDS011;1560;52.746;13.474;2023-02-22T15:10:05;12.70;;;3.90;;
3099;SDS011;1560;52.746;13.474;2023-02-22T15:12:51;11.00;;;4.12;;
3099;SDS011;1560;52.746;13.474;2023-02-22T15:15:35;13.93;;;4.20;;
3099;SDS011;1560;52.746;13.474;2023-02-22T15:18:13;11.70;;;4.03;;
3099;SDS011;1560;52.746;13.474;2023-02-22T15:20:45;12.28;;;3.70;;
3099;SDS011;1560;52.746;13.474;2023-02-22T15:50:33;8.45;;;2.55;;
3099;SDS011;1560;52.746;13.474;2023-02-22T15:53:04;8.35;;;2.27;;
3099;SDS011;1560;52.746;13.474;2023-02-22T15:55:36;8.10;;;2.30;;
3099;SDS011;1560;52.746;13.474;2023-02-22T15:58:07;11.35;;;3.08;;
3099;SDS011;1560;52.746;13.474;2023-02-22T17:28:20;7.78;;;3.60;;
3099;SDS011;1560;52.746;13.474;2023-02-22T17:30:55;6.70;;;3.80;;
3099;SDS011;1560;52.746;13.474;2023-02-22T17:33:27;8.23;;;3.60;;
3099;SDS011;1560;52.746;13.474;2023-02-22T17:59:51;7.55;;;3.37;;
3099;SDS011;1560;52.746;13.474;2023-02-22T18:02:19;9.25;;;4.12;;
3099;SDS011;1560;52.746;13.474;2023-02-22T18:05:20;7.37;;;3.40;;
3099;SDS011;1560;52.746;13.474;2023-02-22T18:07:49;9.45;;;4.85;;
3099;SDS011;1560;52.746;13.474;2023-02-22T18:12:54;20.30;;;4.72;;
3099;SDS011;1560;52.746;13.474;2023-02-22T18:15:25;14.38;;;5.35;;
3099;SDS011;1560;52.746;13.474;2023-02-22T18:17:54;7.92;;;3.17;;
3099;SDS011;1560;52.746;13.474;2023-02-22T18:23:00;9.15;;;3.70;;
3099;SDS011;1560;52.746;13.474;2023-02-22T18:25:28;11.22;;;3.40;;
3099;SDS011;1560;52.746;13.474;2023-02-22T18:27:58;11.53;;;4.05;;
3099;SDS011;1560;52.746;13.474;2023-02-22T18:30:27;16.07;;;5.12;;
3099;SDS011;1560;52.746;13.474;2023-02-22T18:32:56;6.65;;;3.35;;
3099;SDS011;1560;52.746;13.474;2023-02-22T18:35:33;9.63;;;3.05;;
3099;SDS011;1560;52.746;13.474;2023-02-22T18:38:02;10.58;;;4.65;;
3099;SDS011;1560;52.746;13.474;2023-02-22T18:40:32;8.23;;;3.45;;
3099;SDS011;1560;52.746;13.474;2023-02-22T18:43:00;9.50;;;3.55;;
3099;SDS011;1560;52.746;13.474;2023-02-22T18:45:51;10.68;;;3.12;;
3099;SDS011;1560;52.746;13.474;2023-02-22T18:48:20;8.20;;;2.92;;
3099;SDS011;1560;52.746;13.474;2023-02-22T18:50:48;5.05;;;2.83;;
3099;SDS011;1560;52.746;13.474;2023-02-22T18:53:17;7.22;;;3.33;;
3099;SDS011;1560;52.746;13.474;2023-02-22T18:55:46;7.28;;;2.83;;
3099;SDS011;1560;52.746;13.474;2023-02-22T18:58:15;11.78;;;3.77;;
3099;SDS011;1560;52.746;13.474;2023-02-22T19:00:43;8.23;;;2.95;;
3099;SDS011;1560;52.746;13.474;2023-02-22T19:03:14;8.20;;;2.90;;
3099;SDS011;1560;52.746;13.474;2023-02-22T19:05:43;11.38;;;3.08;;
3099;SDS011;1560;52.746;13.474;2023-02-22T19:10:49;7.92;;;3.65;;
3099;SDS011;1560;52.746;13.474;2023-02-22T19:13:19;9.75;;;5.12;;
3099;SDS011;1560;52.746;13.474;2023-02-22T19:15:47;7.55;;;4.37;;
3099;SDS011;1560;52.746;13.474;2023-02-22T19:18:16;5.12;;;3.20;;
3099;SDS011;1560;52.746;13.474;2023-02-22T19:20:46;6.00;;;2.55;;
3099;SDS011;1560;52.746;13.474;2023-02-22T19:23:21;10.53;;;3.47;;
3099;SDS011;1560;52.746;13.474;2023-02-22T19:28:27;10.40;;;2.90;;
3099;SDS011;1560;52.746;13.474;2023-02-22T19:31:09;7.33;;;3.35;;
3099;SDS011;1560;52.746;13.474;2023-02-22T19:36:18;16.15;;;3.95;;
3099;SDS011;1560;52.746;13.474;2023-02-22T19:38:48;6.95;;;3.02;;
3099;SDS011;1560;52.746;13.474;2023-02-22T19:41:18;21.12;;;5.80;;
3099;SDS011;1560;52.746;13.474;2023-02-22T19:43:48;9.90;;;3.80;;
3099;SDS011;1560;52.746;13.474;2023-02-22T19:48:55;10.95;;;4.12;;
3099;SDS011;1560;52.746;13.474;2023-02-22T19:54:01;11.78;;;6.97;;
3099;SDS011;1560;52.746;13.474;2023-02-22T19:56:31;15.25;;;6.87;;
3099;SDS011;1560;52.746;13.474;2023-02-22T19:59:02;17.27;;;5.40;;
3099;SDS011;1560;52.746;13.474;2023-02-22T20:04:12;23.60;;;5.97;;
3099;SDS011;1560;52.746;13.474;2023-02-22T20:06:43;15.05;;;6.55;;
3099;SDS011;1560;52.746;13.474;2023-02-22T20:09:14;17.52;;;5.28;;
3099;SDS011;1560;52.746;13.474;2023-02-22T20:11:51;13.75;;;5.35;;
3099;SDS011;1560;52.746;13.474;2023-02-22T20:14:21;19.55;;;7.58;;
3099;SDS011;1560;52.746;13.474;2023-02-22T20:16:54;12.70;;;6.30;;
3099;SDS011;1560;52.746;13.474;2023-02-22T20:19:24;13.30;;;5.80;;
3099;SDS011;1560;52.746;13.474;2023-02-22T20:21:53;15.65;;;6.92;;
3099;SDS011;1560;52.746;13.474;2023-02-22T20:24:31;18.35;;;6.40;;
3099;SDS011;1560;52.746;13.474;2023-02-22T20:27:00;18.23;;;7.75;;
3099;SDS011;1560;52.746;13.474;2023-02-22T20:29:38;18.35;;;7.55;;
3099;SDS011;1560;52.746;13.474;2023-02-22T20:32:08;18.40;;;8.63;;
3099;SDS011;1560;52.746;13.474;2023-02-22T20:37:20;17.98;;;7.10;;
3099;SDS011;1560;52.746;13.474;2023-02-22T20:39:49;18.40;;;7.30;;
3099;SDS011;1560;52.746;13.474;2023-02-22T20:42:20;18.25;;;8.78;;
3099;SDS011;1560;52.746;13.474;2023-02-22T20:44:49;17.48;;;8.25;;
3099;SDS011;1560;52.746;13.474;2023-02-22T20:47:18;17.70;;;9.40;;
3099;SDS011;1560;52.746;13.474;2023-02-22T20:49:47;34.08;;;9.38;;
3099;SDS011;1560;52.746;13.474;2023-02-22T20:52:15;19.37;;;9.15;;
3099;SDS011;1560;52.746;13.474;2023-02-22T20:54:45;18.48;;;8.45;;
3099;SDS011;1560;52.746;13.474;2023-02-22T20:57:24;27.13;;;8.50;;
3099;SDS011;1560;52.746;13.474;2023-02-22T20:59:53;21.65;;;9.13;;
3099;SDS011;1560;52.746;13.474;2023-02-22T21:05:01;26.25;;;10.00;;
3099;SDS011;1560;52.746;13.474;2023-02-22T21:07:30;17.37;;;9.00;;
3099;SDS011;1560;52.746;13.474;2023-02-22T21:09:59;29.25;;;9.60;;
3099;SDS011;1560;52.746;13.474;2023-02-22T21:15:04;26.45;;;8.75;;
3099;SDS011;1560;52.746;13.474;2023-02-22T21:17:34;28.92;;;9.00;;
3099;SDS011;1560;52.746;13.474;2023-02-22T21:20:04;21.68;;;8.20;;
3099;SDS011;1560;52.746;13.474;2023-02-22T21:25:14;20.48;;;9.35;;
3099;SDS011;1560;52.746;13.474;2023-02-22T21:27:43;35.83;;;10.45;;
3099;SDS011;1560;52.746;13.474;2023-02-22T21:30:13;24.05;;;9.60;;
3099;SDS011;1560;52.746;13.474;2023-02-22T21:35:18;23.62;;;10.20;;
3099;SDS011;1560;52.746;13.474;2023-02-22T21:37:47;31.75;;;9.28;;
3099;SDS011;1560;52.746;13.474;2023-02-22T21:40:18;30.32;;;10.65;;
3099;SDS011;1560;52.746;13.474;2023-02-22T21:42:47;26.02;;;10.00;;
3099;SDS011;1560;52.746;13.474;2023-02-22T21:47:52;29.23;;;9.23;;
3099;SDS011;1560;52.746;13.474;2023-02-22T21:50:21;27.58;;;10.30;;
3099;SDS011;1560;52.746;13.474;2023-02-22T21:52:59;19.15;;;9.23;;
3099;SDS011;1560;52.746;13.474;2023-02-22T21:55:27;32.58;;;9.60;;
3099;SDS011;1560;52.746;13.474;2023-02-22T21:57:56;23.85;;;8.80;;
3099;SDS011;1560;52.746;13.474;2023-02-22T22:00:25;24.47;;;9.43;;
3099;SDS011;1560;52.746;13.474;2023-02-22T22:02:55;24.70;;;9.35;;
3099;SDS011;1560;52.746;13.474;2023-02-22T22:08:01;31.80;;;10.38;;
3099;SDS011;1560;52.746;13.474;2023-02-22T22:10:32;20.75;;;10.10;;
3099;SDS011;1560;52.746;13.474;2023-02-22T22:13:02;23.10;;;10.50;;
3099;SDS011;1560;52.746;13.474;2023-02-22T22:18:08;23.98;;;10.95;;
3099;SDS011;1560;52.746;13.474;2023-02-22T22:20:38;26.50;;;11.40;;
3099;SDS011;1560;52.746;13.474;2023-02-22T22:23:07;21.87;;;10.38;;
3099;SDS011;1560;52.746;13.474;2023-02-22T22:25:37;18.15;;;9.73;;
3099;SDS011;1560;52.746;13.474;2023-02-22T22:28:06;16.75;;;10.05;;
3099;SDS011;1560;52.746;13.474;2023-02-22T22:33:13;23.65;;;11.25;;
3099;SDS011;1560;52.746;13.474;2023-02-22T22:35:41;26.12;;;11.90;;
3099;SDS011;1560;52.746;13.474;2023-02-22T22:38:19;25.77;;;10.30;;
3099;SDS011;1560;52.746;13.474;2023-02-22T22:40:48;27.77;;;12.82;;
3099;SDS011;1560;52.746;13.474;2023-02-22T22:43:18;26.73;;;12.00;;
3099;SDS011;1560;52.746;13.474;2023-02-22T22:48:23;34.60;;;12.58;;
3099;SDS011;1560;52.746;13.474;2023-02-22T22:50:56;29.32;;;12.30;;
3099;SDS011;1560;52.746;13.474;2023-02-22T22:53:28;27.17;;;12.10;;
3099;SDS011;1560;52.746;13.474;2023-02-22T22:56:01;24.75;;;11.35;;
3099;SDS011;1560;52.746;13.474;2023-02-22T22:58:31;32.98;;;12.95;;
3099;SDS011;1560;52.746;13.474;2023-02-22T23:01:00;27.10;;;13.58;;
3099;SDS011;1560;52.746;13.474;2023-02-22T23:03:31;29.37;;;12.82;;
3099;SDS011;1560;52.746;13.474;2023-02-22T23:06:02;22.05;;;11.38;;
3099;SDS011;1560;52.746;13.474;2023-02-22T23:08:32;22.32;;;11.05;;
3099;SDS011;1560;52.746;13.474;2023-02-22T23:11:05;29.63;;;12.45;;
3099;SDS011;1560;52.746;13.474;2023-02-22T23:13:35;30.60;;;11.18;;
3099;SDS011;1560;52.746;13.474;2023-02-22T23:16:07;19.23;;;11.90;;
3099;SDS011;1560;52.746;13.474;2023-02-22T23:18:37;25.25;;;11.33;;
3099;SDS011;1560;52.746;13.474;2023-02-22T23:21:08;24.70;;;11.43;;
3099;SDS011;1560;52.746;13.474;2023-02-22T23:23:37;21.97;;;10.50;;
3099;SDS011;1560;52.746;13.474;2023-02-22T23:26:07;26.93;;;12.23;;
3099;SDS011;1560;52.746;13.474;2023-02-22T23:31:16;27.82;;;14.25;;
3099;SDS011;1560;52.746;13.474;2023-02-22T23:33:45;28.75;;;11.88;;
3099;SDS011;1560;52.746;13.474;2023-02-22T23:36:14;21.48;;;10.55;;
3099;SDS011;1560;52.746;13.474;2023-02-22T23:41:21;25.68;;;12.20;;
3099;SDS011;1560;52.746;13.474;2023-02-22T23:43:52;22.45;;;12.98;;
3099;SDS011;1560;52.746;13.474;2023-02-22T23:46:21;28.35;;;12.90;;
3099;SDS011;1560;52.746;13.474;2023-02-22T23:48:51;23.55;;;12.33;;
3099;SDS011;1560;52.746;13.474;2023-02-22T23:51:22;28.40;;;12.55;;
3099;SDS011;1560;52.746;13.474;2023-02-22T23:53:51;20.12;;;9.70;;
3099;SDS011;1560;52.746;13.474;2023-02-22T23:56:22;18.50;;;10.13;;
3099;SDS011;1560;52.746;13.474;2023-02-22T23:58:53;27.27;;;13.72;;
